createdAt,value
2019-02-20T00:02:16.739Z,102108.88
2019-02-20T00:04:43.843Z,102106.36
2019-02-20T00:07:10.920Z,102104.85
2019-02-20T00:09:37.979Z,102111.95
2019-02-20T00:12:05.156Z,102110.55
2019-02-20T00:14:32.343Z,102109.25
2019-02-20T00:16:59.376Z,102114.06
2019-02-20T00:19:26.423Z,102110.73
2019-02-20T00:21:53.516Z,102114.35
2019-02-20T00:24:20.566Z,102115.05
2019-02-20T00:26:47.705Z,102117.44
2019-02-20T00:29:14.791Z,102112.84
2019-02-20T00:31:41.979Z,102116.18
2019-02-20T00:34:09.028Z,102111.28
2019-02-20T00:36:36.112Z,102112.08
2019-02-20T00:39:06.651Z,102110.27
2019-02-20T00:41:33.690Z,102107.27
2019-02-20T00:44:26.148Z,102113.28
2019-02-20T00:47:57.015Z,102115.08
2019-02-20T00:50:25.688Z,102116.59
2019-02-20T00:52:57.860Z,102113.80
2019-02-20T00:55:24.903Z,102106.59
2019-02-20T00:58:40.908Z,102108.30
2019-02-20T01:01:07.963Z,102111.63
2019-02-20T01:03:35.004Z,102110.61
2019-02-20T01:06:02.095Z,102112.02
2019-02-20T01:08:29.273Z,102119.84
2019-02-20T01:10:56.307Z,102119.95
2019-02-20T01:13:23.404Z,102120.84
2019-02-20T01:15:51.554Z,102122.15
2019-02-20T01:18:18.728Z,102123.75
2019-02-20T01:20:46.919Z,102117.02
2019-02-20T01:23:14.014Z,102119.44
2019-02-20T01:25:41.052Z,102123.95
2019-02-20T01:28:08.146Z,102124.16
2019-02-20T01:30:35.225Z,102124.27
2019-02-20T01:33:02.301Z,102116.45
2019-02-20T01:35:29.684Z,102117.16
2019-02-20T01:37:56.747Z,102115.64
2019-02-20T01:40:23.793Z,102108.03
2019-02-20T01:43:09.350Z,102107.63
2019-02-20T01:45:36.392Z,102106.72
2019-02-20T01:48:03.427Z,102103.41
2019-02-20T01:50:30.612Z,102104.13
2019-02-20T01:53:59.036Z,102105.73
2019-02-20T01:56:26.439Z,102106.02
2019-02-20T01:58:53.551Z,102102.22
2019-02-20T02:01:30.972Z,102098.00
2019-02-20T02:03:58.009Z,102090.78
2019-02-20T02:06:25.060Z,102101.22
2019-02-20T02:08:52.142Z,102095.50
2019-02-20T02:11:19.184Z,102096.00
2019-02-20T02:13:46.249Z,102090.18
2019-02-20T02:16:13.301Z,102089.28
2019-02-20T02:18:40.344Z,102092.89
2019-02-20T02:21:07.427Z,102086.86
2019-02-20T02:23:40.956Z,102081.14
2019-02-20T02:26:10.789Z,102082.65
2019-02-20T02:28:36.981Z,102089.57
2019-02-20T02:31:04.096Z,102080.14
2019-02-20T02:33:32.345Z,102084.95
2019-02-20T02:35:59.511Z,102086.34
2019-02-20T02:38:26.620Z,102087.44
2019-02-20T02:40:53.762Z,102090.84
2019-02-20T02:43:20.847Z,102088.53
2019-02-20T02:45:47.894Z,102088.53
2019-02-20T02:48:20.153Z,102087.44
2019-02-20T02:50:47.237Z,102077.52
2019-02-20T02:53:14.279Z,102083.53
2019-02-20T02:55:41.305Z,102078.81
2019-02-20T02:58:08.372Z,102084.23
2019-02-20T03:00:35.423Z,102080.53
2019-02-20T03:03:02.469Z,102078.23
2019-02-20T03:05:29.573Z,102079.13
2019-02-20T03:07:56.610Z,102080.55
2019-02-20T03:10:23.653Z,102082.24
2019-02-20T03:13:09.578Z,102076.53
2019-02-20T03:15:36.635Z,102080.94
2019-02-20T03:18:03.686Z,102077.34
2019-02-20T03:20:30.775Z,102078.05
2019-02-20T03:22:57.824Z,102078.14
2019-02-20T03:25:24.967Z,102079.15
2019-02-20T03:27:52.046Z,102086.06
2019-02-20T03:30:19.086Z,102097.00
2019-02-20T03:32:46.216Z,102095.80
2019-02-20T03:35:13.566Z,102098.41
2019-02-20T03:37:40.642Z,102097.41
2019-02-20T03:40:08.030Z,102096.50
2019-02-20T03:42:35.104Z,102095.09
2019-02-20T03:45:02.164Z,102095.89
2019-02-20T03:48:23.858Z,102102.31
2019-02-20T03:50:50.906Z,102098.00
2019-02-20T03:53:17.930Z,102106.83
2019-02-20T03:55:46.801Z,102106.53
2019-02-20T03:58:13.851Z,102105.73
2019-02-20T04:00:40.930Z,102105.53
2019-02-20T04:03:08.098Z,102106.53
2019-02-20T04:05:35.135Z,102107.64
2019-02-20T04:08:02.179Z,102107.34
2019-02-20T04:10:29.248Z,102106.54
2019-02-20T04:12:56.372Z,102120.19
2019-02-20T04:15:23.354Z,102113.36
2019-02-20T04:17:50.436Z,102117.27
2019-02-20T04:20:17.483Z,102111.36
2019-02-20T04:22:44.562Z,102107.44
2019-02-20T04:25:11.657Z,102107.64
2019-02-20T04:27:38.699Z,102106.74
2019-02-20T04:30:06.410Z,102111.56
2019-02-20T04:32:33.494Z,102110.35
2019-02-20T04:35:00.556Z,102113.97
2019-02-20T04:37:27.613Z,102108.75
2019-02-20T04:39:54.713Z,102109.45
2019-02-20T04:42:21.823Z,102109.86
2019-02-20T04:44:48.929Z,102116.38
2019-02-20T04:47:15.952Z,102116.08
2019-02-20T04:49:42.989Z,102118.59
2019-02-20T04:52:10.179Z,102116.78
2019-02-20T04:54:37.218Z,102121.09
2019-02-20T04:57:04.258Z,102122.90
2019-02-20T04:59:31.325Z,102120.69
2019-02-20T05:01:58.450Z,102114.06
2019-02-20T05:04:25.522Z,102112.97
2019-02-20T05:06:52.611Z,102112.16
2019-02-20T05:09:19.675Z,102108.65
2019-02-20T05:11:46.712Z,102113.36
2019-02-20T05:14:13.794Z,102105.44
2019-02-20T05:16:40.844Z,102111.45
2019-02-20T05:19:07.887Z,102107.14
2019-02-20T05:21:34.986Z,102105.64
2019-02-20T05:24:02.019Z,102106.84
2019-02-20T05:26:29.144Z,102100.63
2019-02-20T05:28:56.239Z,102113.36
2019-02-20T05:31:23.378Z,102111.16
2019-02-20T05:33:50.437Z,102116.38
2019-02-20T05:36:17.589Z,102113.67
2019-02-20T05:38:44.687Z,102111.16
2019-02-20T05:41:11.912Z,102109.95
2019-02-20T05:43:40.114Z,102108.95
2019-02-20T05:46:07.646Z,102110.75
2019-02-20T05:48:34.808Z,102114.97
2019-02-20T05:51:01.901Z,102112.77
2019-02-20T05:53:28.938Z,102114.27
2019-02-20T05:55:56.027Z,102118.08
2019-02-20T05:58:23.056Z,102113.77
2019-02-20T06:00:50.086Z,102128.00
2019-02-20T06:03:17.187Z,102123.79
2019-02-20T06:05:44.466Z,102122.28
2019-02-20T06:08:11.547Z,102124.99
2019-02-20T06:10:38.637Z,102118.47
2019-02-20T06:13:05.698Z,102128.30
2019-02-20T06:15:34.077Z,102127.00
2019-02-20T06:18:01.147Z,102128.80
2019-02-20T06:20:28.195Z,102124.48
2019-02-20T06:23:22.845Z,102131.30
2019-02-20T06:25:50.103Z,102135.21
2019-02-20T06:28:17.170Z,102130.90
2019-02-20T06:30:44.248Z,102136.11
2019-02-20T06:33:11.314Z,102130.00
2019-02-20T06:35:38.415Z,102131.52
2019-02-20T06:38:05.483Z,102134.93
2019-02-20T06:40:32.532Z,102137.23
2019-02-20T06:42:59.608Z,102147.06
2019-02-20T06:45:26.751Z,102141.34
2019-02-20T06:47:53.834Z,102144.25
2019-02-20T06:50:21.188Z,102142.05
2019-02-20T06:52:48.336Z,102143.55
2019-02-20T06:55:15.422Z,102138.44
2019-02-20T06:57:42.498Z,102139.05
2019-02-20T07:00:10.247Z,102150.89
2019-02-20T07:02:37.309Z,102153.39
2019-02-20T07:05:40.544Z,102148.47
2019-02-20T07:08:58.028Z,102155.70
2019-02-20T07:11:52.394Z,102160.12
2019-02-20T07:15:13.722Z,102161.02
2019-02-20T07:18:28.184Z,102171.26
2019-02-20T07:21:21.868Z,102168.05
2019-02-20T07:24:39.752Z,102167.48
2019-02-20T07:27:54.679Z,102169.90
2019-02-20T07:30:21.790Z,102170.10
2019-02-20T07:32:48.902Z,102170.50
2019-02-20T07:35:15.934Z,102177.94
2019-02-20T07:37:43.031Z,102174.92
2019-02-20T07:40:11.508Z,102175.73
2019-02-20T07:42:38.551Z,102176.13
2019-02-20T07:45:07.305Z,102179.44
2019-02-20T07:47:34.360Z,102186.16
2019-02-20T07:50:01.429Z,102179.92
2019-02-20T07:52:28.567Z,102186.75
2019-02-20T07:54:55.635Z,102187.55
2019-02-20T07:57:22.737Z,102188.34
2019-02-20T07:59:49.852Z,102193.09
2019-02-20T08:02:16.900Z,102190.97
2019-02-20T08:04:43.966Z,102205.92
2019-02-20T08:07:11.067Z,102218.56
2019-02-20T08:09:38.269Z,102210.21
2019-02-20T08:12:06.518Z,102214.52
2019-02-20T08:14:33.595Z,102218.73
2019-02-20T08:17:00.713Z,102220.22
2019-02-20T08:19:27.757Z,102224.93
2019-02-20T08:21:54.873Z,102218.99
2019-02-20T08:24:22.091Z,102217.56
2019-02-20T08:26:49.275Z,102220.50
2019-02-20T08:29:16.479Z,102219.07
2019-02-20T08:31:43.720Z,102223.19
2019-02-20T08:34:10.836Z,102225.08
2019-02-20T08:36:37.951Z,102225.45
2019-02-20T08:39:05.305Z,102222.41
2019-02-20T08:41:32.361Z,102224.12
2019-02-20T08:43:59.589Z,102229.13
2019-02-20T08:46:45.200Z,102223.72
2019-02-20T08:49:12.369Z,102233.37
2019-02-20T08:51:39.429Z,102240.09
2019-02-20T08:54:06.578Z,102243.70
2019-02-20T08:56:33.689Z,102243.90
2019-02-20T08:59:00.759Z,102239.34
2019-02-20T09:01:27.902Z,102240.13
2019-02-20T09:03:54.967Z,102239.09
2019-02-20T09:06:22.053Z,102247.72
2019-02-20T09:08:49.353Z,102246.50
2019-02-20T09:11:16.425Z,102245.20
2019-02-20T09:13:43.498Z,102249.62
2019-02-20T09:16:12.427Z,102249.58
2019-02-20T09:18:40.619Z,102256.80
2019-02-20T09:21:07.691Z,102247.47
2019-02-20T09:23:34.842Z,102251.39
2019-02-20T09:26:01.894Z,102251.06
2019-02-20T09:28:29.018Z,102244.80
2019-02-20T09:30:56.157Z,102248.78
2019-02-20T09:33:23.294Z,102244.23
2019-02-20T09:35:50.470Z,102246.20
2019-02-20T09:38:17.606Z,102240.17
2019-02-20T09:40:44.652Z,102246.11
2019-02-20T09:43:11.708Z,102240.06
2019-02-20T09:45:42.014Z,102243.75
2019-02-20T09:48:07.904Z,102243.98
2019-02-20T09:50:35.028Z,102239.73
2019-02-20T09:53:02.249Z,102238.16
2019-02-20T09:55:29.320Z,102234.81
2019-02-20T09:57:56.487Z,102238.59
2019-02-20T10:00:23.610Z,102244.17
2019-02-20T10:02:50.678Z,102242.12
2019-02-20T10:05:17.864Z,102244.17
2019-02-20T10:07:45.006Z,102250.41
2019-02-20T10:10:12.236Z,102255.90
2019-02-20T10:12:39.378Z,102255.08
2019-02-20T10:15:07.482Z,102256.80
2019-02-20T10:17:34.565Z,102256.55
2019-02-20T10:20:01.657Z,102261.47
2019-02-20T10:22:28.940Z,102259.18
2019-02-20T10:24:55.994Z,102261.15
2019-02-20T10:27:23.078Z,102264.67
2019-02-20T10:29:50.515Z,102266.30
2019-02-20T10:32:17.581Z,102258.52
2019-02-20T10:34:44.663Z,102264.33
2019-02-20T10:37:11.940Z,102274.15
2019-02-20T10:39:39.015Z,102266.33
2019-02-20T10:42:06.086Z,102272.58
2019-02-20T10:44:33.199Z,102280.22
2019-02-20T10:47:00.288Z,102271.42
2019-02-20T10:49:27.461Z,102275.81
2019-02-20T10:52:13.128Z,102269.09
2019-02-20T10:54:40.188Z,102259.05
2019-02-20T10:57:07.252Z,102265.34
2019-02-20T10:59:35.579Z,102263.00
2019-02-20T11:02:02.655Z,102266.74
2019-02-20T11:04:32.283Z,102264.05
2019-02-20T11:06:59.377Z,102255.73
2019-02-20T11:09:26.444Z,102255.25
2019-02-20T11:11:54.529Z,102257.19
2019-02-20T11:14:21.749Z,102247.97
2019-02-20T11:16:48.826Z,102257.26
2019-02-20T11:19:16.702Z,102254.20
2019-02-20T11:21:43.781Z,102255.31
2019-02-20T11:24:10.899Z,102259.68
2019-02-20T11:26:46.239Z,102265.98
2019-02-20T11:29:19.478Z,102258.91
2019-02-20T11:31:46.571Z,102260.09
2019-02-20T11:34:13.688Z,102254.83
2019-02-20T11:36:40.836Z,102263.49
2019-02-20T11:39:07.925Z,102264.13
2019-02-20T11:41:35.004Z,102263.50
2019-02-20T11:44:02.113Z,102262.53
2019-02-20T11:46:29.200Z,102254.68
2019-02-20T11:48:56.436Z,102264.95
2019-02-20T11:51:23.571Z,102258.91
2019-02-20T11:53:50.684Z,102263.91
2019-02-20T11:56:26.842Z,102257.33
2019-02-20T11:58:54.014Z,102264.95
2019-02-20T12:01:21.079Z,102255.73
2019-02-20T12:04:11.339Z,102263.77
2019-02-20T12:06:38.429Z,102257.41
2019-02-20T12:09:05.908Z,102253.25
2019-02-20T12:11:34.131Z,102258.72
2019-02-20T12:14:01.188Z,102253.44
2019-02-20T12:16:28.380Z,102263.56
2019-02-20T12:18:55.488Z,102264.67
2019-02-20T12:21:22.657Z,102261.69
2019-02-20T12:23:49.721Z,102258.98
2019-02-20T12:26:16.962Z,102262.53
2019-02-20T12:28:44.048Z,102266.12
2019-02-20T12:31:11.102Z,102266.60
2019-02-20T12:33:38.227Z,102264.53
2019-02-20T12:36:05.357Z,102267.85
2019-02-20T12:38:34.002Z,102263.83
2019-02-20T12:41:01.219Z,102266.48
2019-02-20T12:43:28.361Z,102270.22
2019-02-20T12:45:55.426Z,102265.42
2019-02-20T12:48:22.564Z,102265.78
2019-02-20T12:50:49.743Z,102264.05
2019-02-20T12:53:55.137Z,102261.48
2019-02-20T12:56:22.352Z,102262.50
2019-02-20T12:58:49.650Z,102256.36
2019-02-20T13:01:16.757Z,102254.98
2019-02-20T13:03:43.986Z,102252.81
2019-02-20T13:06:11.236Z,102248.44
2019-02-20T13:08:38.395Z,102248.72
2019-02-20T13:11:05.595Z,102243.64
2019-02-20T13:13:32.765Z,102245.05
2019-02-20T13:15:59.957Z,102241.39
2019-02-20T13:18:27.042Z,102239.65
2019-02-20T13:20:54.170Z,102246.11
2019-02-20T13:23:21.256Z,102248.05
2019-02-20T13:25:48.321Z,102243.72
2019-02-20T13:28:15.547Z,102244.62
2019-02-20T13:30:42.613Z,102246.67
2019-02-20T13:33:09.896Z,102248.77
2019-02-20T13:35:38.142Z,102241.69
2019-02-20T13:38:05.427Z,102245.90
2019-02-20T13:40:32.551Z,102245.00
2019-02-20T13:42:59.728Z,102245.48
2019-02-20T13:45:26.821Z,102244.27
2019-02-20T13:47:54.005Z,102237.66
2019-02-20T13:50:21.330Z,102236.36
2019-02-20T13:52:52.414Z,102239.61
2019-02-20T13:55:17.388Z,102238.91
2019-02-20T13:57:44.664Z,102232.23
2019-02-20T14:00:13.276Z,102231.55
2019-02-20T14:02:40.635Z,102232.80
2019-02-20T14:05:07.866Z,102227.04
2019-02-20T14:07:35.178Z,102223.21
2019-02-20T14:10:02.561Z,102216.69
2019-02-20T14:12:29.719Z,102223.55
2019-02-20T14:14:56.821Z,102218.48
2019-02-20T14:17:26.567Z,102215.79
2019-02-20T14:19:52.891Z,102219.62
2019-02-20T14:22:20.802Z,102216.13
2019-02-20T14:24:49.237Z,102220.19
2019-02-20T14:27:17.229Z,102221.70
2019-02-20T14:29:44.873Z,102216.44
2019-02-20T14:32:11.948Z,102218.62
2019-02-20T14:34:39.079Z,102226.70
2019-02-20T14:37:06.208Z,102219.56
2019-02-20T14:39:40.071Z,102219.66
2019-02-20T14:42:07.189Z,102211.05
2019-02-20T14:44:34.550Z,102218.32
2019-02-20T14:47:02.730Z,102216.13
2019-02-20T14:49:29.921Z,102217.59
2019-02-20T14:51:56.957Z,102219.03
2019-02-20T14:54:24.234Z,102215.02
2019-02-20T14:56:51.321Z,102221.19
2019-02-20T14:59:18.483Z,102237.42
2019-02-20T15:01:45.557Z,102228.01
2019-02-20T15:04:14.008Z,102229.52
2019-02-20T15:06:41.125Z,102232.17
2019-02-20T15:09:08.287Z,102229.72
2019-02-20T15:11:35.465Z,102228.59
2019-02-20T15:14:02.539Z,102235.55
2019-02-20T15:16:29.688Z,102231.65
2019-02-20T15:18:56.798Z,102242.98
2019-02-20T15:21:24.272Z,102238.11
2019-02-20T15:23:51.467Z,102239.84
2019-02-20T15:26:18.574Z,102242.47
2019-02-20T15:28:45.629Z,102242.22
2019-02-20T15:31:12.697Z,102244.41
2019-02-20T15:33:39.988Z,102243.19
2019-02-20T15:36:07.348Z,102244.50
2019-02-20T15:38:34.468Z,102250.30
2019-02-20T15:41:02.053Z,102250.36
2019-02-20T15:43:29.117Z,102253.86
2019-02-20T15:45:56.193Z,102249.80
2019-02-20T15:48:23.758Z,102254.25
2019-02-20T15:50:53.048Z,102258.48
2019-02-20T15:53:20.088Z,102263.34
2019-02-20T15:55:47.276Z,102259.20
2019-02-20T15:58:15.051Z,102258.51
2019-02-20T16:00:42.137Z,102257.41
2019-02-20T16:03:09.231Z,102252.41
2019-02-20T16:05:36.309Z,102255.46
2019-02-20T16:08:03.454Z,102256.22
2019-02-20T16:10:31.162Z,102261.98
2019-02-20T16:12:58.317Z,102256.36
2019-02-20T16:15:25.384Z,102255.60
2019-02-20T16:17:52.865Z,102252.48
2019-02-20T16:20:19.943Z,102257.05
2019-02-20T16:22:47.014Z,102253.03
2019-02-20T16:25:14.213Z,102250.34
2019-02-20T16:27:47.361Z,102249.30
2019-02-20T16:30:11.263Z,102246.52
2019-02-20T16:32:38.380Z,102250.41
2019-02-20T16:35:07.712Z,102251.38
2019-02-20T16:37:34.972Z,102253.52
2019-02-20T16:40:02.110Z,102253.03
2019-02-20T16:42:29.335Z,102253.23
2019-02-20T16:44:56.389Z,102253.78
2019-02-20T16:47:23.615Z,102264.72
2019-02-20T16:49:50.723Z,102265.95
2019-02-20T16:52:17.919Z,102270.48
2019-02-20T16:54:45.602Z,102274.28
2019-02-20T16:57:12.827Z,102274.42
2019-02-20T16:59:39.973Z,102277.19
2019-02-20T17:02:07.781Z,102279.45
2019-02-20T17:04:34.914Z,102280.92
2019-02-20T17:07:02.103Z,102284.16
2019-02-20T17:09:29.171Z,102288.81
2019-02-20T17:11:56.239Z,102290.91
2019-02-20T17:14:23.454Z,102292.19
2019-02-20T17:16:50.499Z,102291.95
2019-02-20T17:19:17.565Z,102297.63
2019-02-20T17:21:46.210Z,102297.88
2019-02-20T17:24:13.261Z,102300.44
2019-02-20T17:26:40.440Z,102308.58
2019-02-20T17:29:07.579Z,102306.20
2019-02-20T17:31:35.563Z,102311.13
2019-02-20T17:34:02.730Z,102310.06
2019-02-20T17:36:29.812Z,102308.75
2019-02-20T17:38:56.933Z,102314.24
2019-02-20T17:41:24.037Z,102315.56
2019-02-20T17:43:51.265Z,102317.64
2019-02-20T17:46:18.767Z,102318.97
2019-02-20T17:48:46.036Z,102322.83
2019-02-20T17:51:13.345Z,102323.25
2019-02-20T17:54:06.648Z,102321.55
2019-02-20T17:56:33.744Z,102324.80
2019-02-20T17:59:00.836Z,102320.38
2019-02-20T18:01:28.105Z,102320.20
2019-02-20T18:03:55.383Z,102318.56
2019-02-20T18:06:22.610Z,102317.78
2019-02-20T18:08:49.792Z,102320.81
2019-02-20T18:11:17.167Z,102323.11
2019-02-20T18:13:44.362Z,102326.31
2019-02-20T18:16:11.556Z,102323.48
2019-02-20T18:18:38.671Z,102323.16
2019-02-20T18:21:05.788Z,102326.92
2019-02-20T18:23:32.940Z,102328.13
2019-02-20T18:26:01.045Z,102330.25
2019-02-20T18:28:28.159Z,102336.30
2019-02-20T18:30:55.297Z,102333.65
2019-02-20T18:33:22.482Z,102341.38
2019-02-20T18:35:49.713Z,102340.12
2019-02-20T18:38:16.845Z,102336.83
2019-02-20T18:40:44.101Z,102337.88
2019-02-20T18:43:12.303Z,102337.11
2019-02-20T18:45:39.530Z,102340.87
2019-02-20T18:48:06.774Z,102344.63
2019-02-20T18:50:33.902Z,102345.76
2019-02-20T18:53:01.048Z,102354.17
2019-02-20T18:55:29.501Z,102357.73
2019-02-20T18:57:56.693Z,102363.92
2019-02-20T19:00:23.826Z,102362.22
2019-02-20T19:03:27.408Z,102366.28
2019-02-20T19:05:54.618Z,102358.47
2019-02-20T19:08:39.933Z,102361.53
2019-02-20T19:11:44.301Z,102366.89
2019-02-20T19:14:26.719Z,102368.83
2019-02-20T19:17:21.118Z,102371.39
2019-02-20T19:20:02.180Z,102367.90
2019-02-20T19:22:57.729Z,102367.83
2019-02-20T19:26:02.884Z,102376.02
2019-02-20T19:29:10.468Z,102373.34
2019-02-20T19:32:04.969Z,102376.86
2019-02-20T19:35:21.404Z,102373.16
2019-02-20T19:37:55.051Z,102377.00
2019-02-20T19:41:02.708Z,102375.31
2019-02-20T19:43:57.753Z,102368.22
2019-02-20T19:47:04.586Z,102368.41
2019-02-20T19:50:25.547Z,102369.80
2019-02-20T19:53:04.930Z,102371.25
2019-02-20T19:55:57.832Z,102375.75
2019-02-20T19:59:01.132Z,102380.12
2019-02-20T20:02:10.188Z,102374.51
2019-02-20T20:05:38.797Z,102373.60
2019-02-20T20:08:52.890Z,102378.16
2019-02-20T20:12:19.893Z,102376.25
2019-02-20T20:15:02.826Z,102383.92
2019-02-20T20:18:19.162Z,102382.73
2019-02-20T20:21:15.844Z,102378.80
2019-02-20T20:24:10.321Z,102384.34
2019-02-20T20:27:23.042Z,102382.36
2019-02-20T20:30:44.900Z,102380.42
2019-02-20T20:33:49.843Z,102380.61
2019-02-20T20:36:46.842Z,102383.98
2019-02-20T20:40:06.810Z,102387.26
2019-02-20T20:43:05.430Z,102384.45
2019-02-20T20:45:48.661Z,102389.22
2019-02-20T20:48:57.474Z,102390.56
2019-02-20T20:51:57.009Z,102388.03
2019-02-20T20:55:10.610Z,102390.34
2019-02-20T20:58:16.212Z,102390.06
2019-02-20T21:01:26.744Z,102398.75
2019-02-20T21:04:20.387Z,102402.08
2019-02-20T21:07:26.728Z,102402.39
2019-02-20T21:10:49.843Z,102398.17
2019-02-20T21:14:00.217Z,102399.41
2019-02-20T21:16:50.951Z,102404.77
2019-02-20T21:19:57.829Z,102400.53
2019-02-20T21:23:05.540Z,102410.80
2019-02-20T21:25:51.023Z,102403.72
2019-02-20T21:28:50.865Z,102403.81
2019-02-20T21:32:15.356Z,102403.41
2019-02-20T21:35:18.897Z,102409.17
2019-02-20T21:38:16.522Z,102413.02
2019-02-20T21:41:25.423Z,102419.98
2019-02-20T21:44:14.977Z,102409.33
2019-02-20T21:47:09.513Z,102408.44
2019-02-20T21:50:03.868Z,102409.25
2019-02-20T21:53:13.993Z,102410.06
2019-02-20T21:56:12.044Z,102417.11
2019-02-20T21:59:03.305Z,102420.94
2019-02-20T22:02:01.659Z,102427.88
2019-02-20T22:04:49.942Z,102432.77
2019-02-20T22:07:58.810Z,102427.04
2019-02-20T22:11:24.368Z,102428.84
2019-02-20T22:14:17.175Z,102428.94
2019-02-20T22:17:06.315Z,102430.55
2019-02-20T22:20:07.200Z,102434.47
2019-02-20T22:23:18.645Z,102431.66
2019-02-20T22:26:17.177Z,102428.84
2019-02-20T22:29:20.510Z,102429.34
2019-02-20T22:32:35.904Z,102427.33
2019-02-20T22:35:40.578Z,102431.45
2019-02-20T22:39:05.173Z,102430.73
2019-02-20T22:42:12.859Z,102435.56
2019-02-20T22:45:19.044Z,102433.05
2019-02-20T22:47:59.913Z,102435.77
2019-02-20T22:51:00.187Z,102434.76
2019-02-20T22:53:50.080Z,102433.64
2019-02-20T22:57:13.307Z,102432.94
2019-02-20T23:00:17.964Z,102433.04
2019-02-20T23:03:10.661Z,102432.63
2019-02-20T23:06:14.245Z,102428.31
2019-02-20T23:09:37.423Z,102425.38
2019-02-20T23:12:22.955Z,102429.30
2019-02-20T23:15:09.571Z,102431.92
2019-02-20T23:17:36.648Z,102436.75
2019-02-20T23:20:04.474Z,102432.23
2019-02-20T23:22:31.623Z,102437.38
2019-02-20T23:24:58.659Z,102441.30
2019-02-20T23:27:25.740Z,102452.45
2019-02-20T23:29:53.070Z,102451.13
2019-02-20T23:32:20.153Z,102451.53
2019-02-20T23:34:47.212Z,102451.74
2019-02-20T23:37:15.759Z,102444.41
2019-02-20T23:39:44.769Z,102449.83
2019-02-20T23:42:11.850Z,102445.09
2019-02-20T23:44:38.954Z,102447.09
2019-02-20T23:47:06.027Z,102451.34
2019-02-20T23:49:33.106Z,102454.81
2019-02-20T23:52:00.221Z,102445.75
2019-02-20T23:54:27.599Z,102443.65
2019-02-20T23:56:54.814Z,102446.89
2019-02-20T23:59:21.913Z,102448.22
